Time;durP1;ratioP1;P1;durP2;ratioP2;P2;SDS_P1;SDS_P2;PMS_P1;PMS_P2;Temp;Humidity;BMP_temperature;BMP_pressure;BME280_temperature;BME280_humidity;BME280_pressure;Samples;Min_cycle;Max_cycle;Signal;HPM_P1;HPM_P2
2022/01/21 00:01:07;;;;;;;10.20;3.17;;;-0.40;99.90;;;;;;5014004;28;20185;-82
2022/01/21 00:03:34;;;;;;;5.33;2.70;;;-1.80;99.90;;;;;;5012788;28;20233;-82
2022/01/21 00:06:00;;;;;;;11.23;3.60;;;;;;;;;;5012784;28;20195;-82
2022/01/21 00:08:27;;;;;;;12.67;3.27;;;;;;;;;;5012890;28;20673;-82
2022/01/21 00:10:53;;;;;;;4.67;2.70;;;;;;;;;;5014311;28;20184;-84
2022/01/21 00:13:33;;;;;;;15.67;3.57;;;-1.90;99.90;;;;;;4996870;28;20547;-82
2022/01/21 00:16:02;;;;;;;7.83;3.03;;;-1.90;99.90;;;;;;5013699;28;20161;-82
2022/01/21 00:18:28;;;;;;;6.47;2.90;;;-1.90;99.90;;;;;;5012802;28;20264;-82
2022/01/21 00:31:52;;;;;;;8.43;2.90;;;;;;;;;;5013671;28;20676;-83
2022/01/21 00:34:18;;;;;;;9.40;3.63;;;-1.80;99.90;;;;;;5012325;28;20188;-82
2022/01/21 00:36:43;;;;;;;7.63;3.60;;;1.10;99.90;;;;;;5013936;28;20195;-82
2022/01/21 00:39:11;;;;;;;7.33;3.37;;;-1.90;99.90;;;;;;5012186;28;20629;-82
2022/01/21 00:41:42;;;;;;;12.57;4.27;;;-1.90;99.90;;;;;;5013562;28;20181;-82
2022/01/21 00:44:08;;;;;;;6.53;3.30;;;-1.10;99.90;;;;;;5013230;28;20164;-82
2022/01/21 00:46:34;;;;;;;7.43;2.77;;;;;;;;;;4996390;28;20181;-82
2022/01/21 00:49:01;;;;;;;4.33;2.50;;;-2.00;99.90;;;;;;4995605;28;20225;-83
2022/01/21 00:51:27;;;;;;;11.23;2.90;;;0.70;99.90;;;;;;5013620;28;20177;-82
2022/01/21 00:53:53;;;;;;;3.30;2.43;;;;;;;;;;5012369;28;20540;-82
2022/01/21 00:56:19;;;;;;;4.77;2.43;;;-0.70;99.90;;;;;;5011973;28;20494;-82
2022/01/21 00:58:45;;;;;;;5.67;3.17;;;-1.80;99.90;;;;;;5012268;28;20634;-82
2022/01/21 01:01:11;;;;;;;7.90;3.87;;;-0.40;99.90;;;;;;5012095;28;20184;-83
2022/01/21 01:03:37;;;;;;;12.43;4.07;;;;;;;;;;4995435;28;20236;-82
2022/01/21 01:06:03;;;;;;;11.57;3.57;;;;;;;;;;5011894;28;20621;-83
2022/01/21 01:08:28;;;;;;;9.50;4.17;;;-1.70;99.90;;;;;;4996123;28;20559;-82
2022/01/21 01:11:17;;;;;;;10.43;3.97;;;-0.80;99.90;;;;;;4979669;28;20180;-82
2022/01/21 01:21:47;;;;;;;10.30;3.30;;;;;;;;;;5014942;28;20176;-81
2022/01/21 01:29:42;;;;;;;15.50;4.57;;;-1.80;99.90;;;;;;5015175;28;20238;-82
2022/01/21 01:32:08;;;;;;;16.13;4.53;;;-1.70;99.90;;;;;;4999126;28;20228;-82
2022/01/21 01:34:34;;;;;;;8.73;4.13;;;;;;;;;;5014449;28;20180;-82
2022/01/21 01:37:06;;;;;;;10.40;3.97;;;;;;;;;;5014011;28;20183;-82
2022/01/21 01:39:43;;;;;;;10.03;4.80;;;-1.80;99.90;;;;;;5012321;28;20188;-81
2022/01/21 01:50:30;;;;;;;9.90;3.23;;;-1.70;99.90;;;;;;5013160;28;20646;-82
2022/01/21 01:52:56;;;;;;;12.40;4.60;;;-2.00;99.90;;;;;;5013988;28;20178;-81
2022/01/21 01:55:22;;;;;;;8.60;3.90;;;0.10;99.90;;;;;;5015367;28;20530;-82
2022/01/21 01:57:48;;;;;;;7.53;2.93;;;-2.00;99.90;;;;;;5015262;28;20609;-81
2022/01/21 02:00:14;;;;;;;14.80;3.93;;;0.50;99.90;;;;;;5014952;28;20265;-81
2022/01/21 02:02:40;;;;;;;8.27;3.40;;;-2.00;99.90;;;;;;5014602;28;20735;-82
2022/01/21 02:05:06;;;;;;;8.50;3.60;;;-2.10;99.90;;;;;;5015157;28;20182;-81
2022/01/21 02:07:33;;;;;;;8.80;3.90;;;;;;;;;;5016393;28;20278;-81
2022/01/21 02:09:58;;;;;;;8.37;3.53;;;-2.10;99.90;;;;;;4998866;28;20595;-82
2022/01/21 02:12:25;;;;;;;9.27;4.30;;;-2.30;99.90;;;;;;5016277;28;20186;-82
2022/01/21 02:14:53;;;;;;;9.43;3.90;;;;;;;;;;4998617;28;20201;-82
2022/01/21 02:21:29;;;;;;;11.50;3.50;;;-2.00;99.90;;;;;;4998614;28;20187;-82
2022/01/21 02:22:54;;;;;;;7.77;3.60;;;-2.30;99.90;;;;;;5016074;28;20178;-82
2022/01/21 02:25:20;;;;;;;9.10;3.60;;;1.00;99.90;;;;;;4998454;28;20189;-82
2022/01/21 02:27:52;;;;;;;9.67;3.20;;;-2.10;99.90;;;;;;4998455;28;20210;-83
2022/01/21 02:30:20;;;;;;;7.53;3.17;;;-2.10;99.90;;;;;;5015867;28;20162;-82
2022/01/21 02:32:56;;;;;;;7.03;3.17;;;-2.30;99.90;;;;;;5014751;28;20185;-81
2022/01/21 02:35:24;;;;;;;8.70;3.63;;;-2.10;99.90;;;;;;5030953;28;20181;-82
2022/01/21 02:37:50;;;;;;;5.00;3.27;;;;;;;;;;5014675;28;20551;-82
2022/01/21 02:40:17;;;;;;;3.93;3.53;;;-2.20;99.90;;;;;;5014423;28;20186;-82
2022/01/21 02:42:43;;;;;;;7.67;3.00;;;;;;;;;;5015865;28;20182;-82
2022/01/21 02:45:11;;;;;;;5.07;2.60;;;-2.20;99.90;;;;;;5014443;28;20189;-82
2022/01/21 02:47:36;;;;;;;6.47;4.10;;;-2.30;99.90;;;;;;5018567;28;20193;-81
2022/01/21 02:50:03;;;;;;;11.70;3.20;;;0.60;99.90;;;;;;5024028;28;20190;-82
2022/01/21 02:52:39;;;;;;;8.67;3.10;;;-2.30;99.90;;;;;;5008329;28;20190;-82
2022/01/21 02:55:06;;;;;;;8.77;3.10;;;-0.80;99.90;;;;;;5026034;28;20157;-82
2022/01/21 02:57:32;;;;;;;6.23;3.10;;;-2.40;99.90;;;;;;5010369;28;20200;-82
2022/01/21 02:59:57;;;;;;;3.60;2.13;;;-0.60;99.90;;;;;;5021294;28;20273;-82
2022/01/21 03:02:23;;;;;;;4.07;2.50;;;0.50;99.90;;;;;;5037516;28;20239;-82
2022/01/21 03:05:00;;;;;;;10.03;3.53;;;-2.40;99.90;;;;;;5036954;28;20189;-81
2022/01/21 03:07:26;;;;;;;5.43;2.70;;;;;;;;;;5008436;28;20204;-82
2022/01/21 03:09:52;;;;;;;6.43;2.43;;;-2.50;99.90;;;;;;5027090;28;20186;-81
2022/01/21 03:12:18;;;;;;;3.47;2.47;;;-0.30;99.90;;;;;;5025032;28;20196;-82
2022/01/21 03:14:43;;;;;;;3.00;2.50;;;-2.80;99.90;;;;;;5031162;28;20169;-81
2022/01/21 03:17:09;;;;;;;7.43;2.37;;;;;;;;;;5037529;28;20192;-81
2022/01/21 03:19:35;;;;;;;4.20;2.37;;;;;;;;;;5038216;28;20186;-84
2022/01/21 03:22:02;;;;;;;11.63;3.13;;;;;;;;;;5038336;28;20196;-82
2022/01/21 03:24:28;;;;;;;2.80;2.00;;;;;;;;;;5020287;28;20170;-82
2022/01/21 03:26:54;;;;;;;7.03;3.20;;;;;;;;;;5013846;28;20181;-82
2022/01/21 03:29:20;;;;;;;8.13;2.50;;;-2.60;99.90;;;;;;5014442;28;20699;-82
2022/01/21 03:31:46;;;;;;;4.37;2.10;;;;;;;;;;5014818;28;20181;-81
2022/01/21 03:34:12;;;;;;;3.47;2.33;;;;;;;;;;5015171;28;20284;-81
2022/01/21 03:36:40;;;;;;;6.07;3.27;;;-3.00;99.90;;;;;;5013203;28;20232;-82
2022/01/21 03:39:06;;;;;;;4.13;2.60;;;;;;;;;;5015058;28;20181;-81
2022/01/21 03:41:32;;;;;;;4.33;2.50;;;;;;;;;;5013220;28;20189;-81
2022/01/21 03:43:58;;;;;;;8.30;3.00;;;;;;;;;;4997088;28;20186;-81
2022/01/21 03:46:24;;;;;;;6.27;3.20;;;-2.70;99.90;;;;;;5014502;28;20195;-82
2022/01/21 03:48:50;;;;;;;8.33;3.17;;;-2.90;99.90;;;;;;5013410;28;20222;-82
2022/01/21 03:51:18;;;;;;;8.00;2.77;;;-2.70;99.90;;;;;;5013133;28;20624;-83
2022/01/21 03:53:46;;;;;;;7.90;2.87;;;-2.70;99.90;;;;;;5013035;28;20184;-83
2022/01/21 03:56:12;;;;;;;3.53;3.00;;;;;;;;;;4996930;28;20278;-81
2022/01/21 03:58:38;;;;;;;6.67;2.60;;;;;;;;;;5014358;28;20217;-82
2022/01/21 04:01:04;;;;;;;8.30;2.90;;;-2.80;99.90;;;;;;5012873;28;20595;-81
2022/01/21 04:03:30;;;;;;;6.63;3.07;;;;;;;;;;5014246;28;20233;-81
2022/01/21 04:05:56;;;;;;;7.03;3.00;;;-2.90;99.90;;;;;;5013178;28;20284;-81
2022/01/21 04:08:21;;;;;;;3.17;2.10;;;-2.90;99.90;;;;;;5013614;28;20737;-83
2022/01/21 04:10:48;;;;;;;7.77;3.17;;;-0.20;99.90;;;;;;4996546;28;20234;-82
2022/01/21 04:13:17;;;;;;;6.40;2.37;;;-2.80;99.90;;;;;;5012817;28;20572;-81
2022/01/21 04:15:45;;;;;;;8.53;3.07;;;-1.10;99.90;;;;;;5013461;28;20180;-82
2022/01/21 04:18:13;;;;;;;7.40;2.27;;;-2.90;99.90;;;;;;5012737;28;20661;-82
2022/01/21 04:20:40;;;;;;;4.97;2.77;;;-2.90;99.90;;;;;;4996381;28;20193;-82
2022/01/21 04:23:06;;;;;;;3.77;2.07;;;;;;;;;;4996415;28;20231;-80
2022/01/21 04:25:32;;;;;;;4.07;2.00;;;-2.80;99.90;;;;;;5012298;28;20275;-82
2022/01/21 04:27:58;;;;;;;4.90;2.77;;;-2.70;99.90;;;;;;4995799;28;20649;-82
2022/01/21 04:30:24;;;;;;;3.40;2.67;;;-3.10;99.90;;;;;;5012134;28;20650;-82
2022/01/21 04:32:49;;;;;;;4.67;3.00;;;-2.80;99.90;;;;;;4979960;28;20187;-81
2022/01/21 04:35:15;;;;;;;4.97;2.47;;;-2.70;99.90;;;;;;4979858;28;20190;-82
2022/01/21 04:37:49;;;;;;;3.70;2.17;;;-2.70;99.90;;;;;;4995895;28;20193;-81
2022/01/21 04:40:17;;;;;;;5.17;2.23;;;-2.70;99.90;;;;;;5012420;28;20286;-82
2022/01/21 04:48:12;;;;;;;4.67;2.60;;;-0.50;99.90;;;;;;5012461;28;20269;-82
2022/01/21 04:50:52;;;;;;;8.17;2.93;;;-3.40;99.90;;;;;;5013277;28;20529;-82
2022/01/21 04:53:18;;;;;;;4.40;2.87;;;;;;;;;;5013493;28;20191;-81
2022/01/21 04:55:43;;;;;;;3.40;2.00;;;-2.60;99.90;;;;;;5013467;28;20181;-82
2022/01/21 04:58:09;;;;;;;4.00;2.30;;;-2.40;99.90;;;;;;5012320;28;20182;-82
2022/01/21 05:00:34;;;;;;;5.37;2.83;;;-1.70;99.90;;;;;;5011991;28;20280;-82
2022/01/21 05:03:00;;;;;;;3.07;2.23;;;0.30;99.90;;;;;;4995721;28;20326;-82
2022/01/21 05:05:26;;;;;;;11.43;3.27;;;-0.50;99.90;;;;;;5012111;28;20277;-81
2022/01/21 05:07:54;;;;;;;4.70;2.43;;;;;;;;;;5013374;28;20227;-82
2022/01/21 05:10:20;;;;;;;6.73;3.10;;;-2.70;99.90;;;;;;5012582;28;20184;-81
2022/01/21 05:12:45;;;;;;;9.47;3.17;;;-2.60;99.90;;;;;;4979854;28;20184;-82
2022/01/21 05:15:18;;;;;;;8.27;3.20;;;-2.60;99.90;;;;;;5013285;28;20182;-82
2022/01/21 05:17:48;;;;;;;5.63;2.97;;;0.10;99.90;;;;;;5011678;28;20194;-82
2022/01/21 05:20:14;;;;;;;6.07;2.63;;;-1.80;99.90;;;;;;5013373;28;20161;-81
2022/01/21 05:22:40;;;;;;;8.77;3.07;;;-2.60;99.90;;;;;;5013009;28;20733;-82
2022/01/21 05:25:06;;;;;;;6.67;3.13;;;-0.40;99.90;;;;;;5011893;28;20649;-83
2022/01/21 05:27:32;;;;;;;7.13;3.07;;;;;;;;;;4997455;28;20182;-83
2022/01/21 05:29:58;;;;;;;4.40;2.60;;;-2.70;99.90;;;;;;5016012;28;20189;-82
2022/01/21 05:32:24;;;;;;;6.13;3.10;;;-2.60;99.90;;;;;;5016950;28;20549;-82
2022/01/21 05:34:49;;;;;;;7.30;4.97;;;-2.40;99.90;;;;;;4999189;28;20205;-82
2022/01/21 05:37:15;;;;;;;6.30;3.13;;;-2.50;99.90;;;;;;5015794;28;20261;-82
2022/01/21 05:39:41;;;;;;;3.53;2.27;;;;;;;;;;4999038;28;20627;-81
2022/01/21 05:42:07;;;;;;;3.13;2.17;;;-2.50;99.90;;;;;;5015478;28;20184;-82
2022/01/21 05:47:00;;;;;;;5.07;3.43;;;0.80;99.90;;;;;;5016714;28;20186;-83
2022/01/21 05:49:29;;;;;;;3.83;1.93;;;-2.50;99.90;;;;;;5015100;28;20213;-83
2022/01/21 05:54:41;;;;;;;9.13;3.77;;;-2.50;99.90;;;;;;5016352;28;20661;-81
2022/01/21 05:57:11;;;;;;;5.23;2.63;;;-1.20;99.90;;;;;;5016255;28;20181;-82
2022/01/21 05:59:37;;;;;;;5.33;2.93;;;-2.40;99.90;;;;;;5027727;28;20200;-83
2022/01/21 06:02:07;;;;;;;6.27;2.97;;;-2.50;99.90;;;;;;5028869;28;20180;-83
2022/01/21 06:04:34;;;;;;;9.03;3.03;;;-2.50;99.90;;;;;;5015229;28;20176;-82
2022/01/21 06:07:00;;;;;;;8.47;2.83;;;;;;;;;;5002478;28;20181;-82
2022/01/21 06:09:27;;;;;;;6.00;2.83;;;-2.70;99.90;;;;;;5018889;28;20228;-82
2022/01/21 06:11:53;;;;;;;8.80;3.43;;;-2.70;99.90;;;;;;5018156;28;20638;-81
2022/01/21 06:14:19;;;;;;;9.23;4.10;;;-2.80;99.90;;;;;;4995826;28;20178;-81
2022/01/21 06:16:45;;;;;;;5.73;3.03;;;-2.70;99.90;;;;;;5014948;28;20185;-81
2022/01/21 06:19:11;;;;;;;6.63;2.80;;;-2.70;99.90;;;;;;4997560;28;20208;-82
2022/01/21 06:21:37;;;;;;;5.17;2.87;;;-2.60;99.90;;;;;;4993831;28;20657;-83
2022/01/21 06:24:03;;;;;;;8.53;4.07;;;-2.80;99.90;;;;;;4996308;28;20647;-82
2022/01/21 06:26:29;;;;;;;8.00;3.20;;;;;;;;;;4996288;28;20644;-83
2022/01/21 06:28:54;;;;;;;6.10;3.30;;;-2.90;99.90;;;;;;5010011;28;20673;-82
2022/01/21 06:31:20;;;;;;;8.97;2.80;;;-2.70;99.90;;;;;;4979782;28;20199;-82
2022/01/21 06:33:46;;;;;;;6.20;3.03;;;-2.60;99.90;;;;;;5010090;28;20192;-80
2022/01/21 06:36:12;;;;;;;4.83;2.87;;;-2.60;99.90;;;;;;4995720;28;20184;-81
2022/01/21 06:38:38;;;;;;;5.73;2.97;;;-0.10;99.90;;;;;;4994853;28;20205;-84
2022/01/21 06:41:04;;;;;;;3.43;2.73;;;;;;;;;;5000776;28;20204;-82
2022/01/21 06:43:30;;;;;;;8.43;4.03;;;;;;;;;;5010183;28;20193;-82
2022/01/21 06:45:56;;;;;;;12.30;3.03;;;;;;;;;;4997703;28;20215;-82
2022/01/21 06:48:22;;;;;;;8.10;3.10;;;;;;;;;;4979275;28;20256;-82
2022/01/21 06:50:49;;;;;;;7.10;2.93;;;;;;;;;;5006382;28;20506;-83
2022/01/21 06:53:15;;;;;;;10.23;5.53;;;;;;;;;;5000163;28;20216;-82
2022/01/21 06:55:40;;;;;;;7.73;3.67;;;-2.70;99.90;;;;;;4986104;28;20228;-82
2022/01/21 06:58:06;;;;;;;10.50;2.93;;;-2.60;99.90;;;;;;5024997;28;20656;-81
2022/01/21 07:00:34;;;;;;;6.90;3.90;;;0.30;99.90;;;;;;5003150;28;20188;-81
2022/01/21 07:03:00;;;;;;;13.40;4.43;;;-2.50;99.90;;;;;;5028285;28;21040;-83
2022/01/21 07:05:29;;;;;;;5.13;3.47;;;-2.00;99.90;;;;;;5033445;28;20188;-85
2022/01/21 07:07:55;;;;;;;6.77;4.43;;;-2.60;99.90;;;;;;5031459;28;20211;-83
2022/01/21 07:10:21;;;;;;;9.33;5.13;;;0.10;99.90;;;;;;5014028;28;20569;-83
2022/01/21 07:12:47;;;;;;;8.10;4.37;;;;;;;;;;5033882;28;20185;-84
2022/01/21 07:15:16;;;;;;;13.97;4.63;;;-2.60;99.90;;;;;;5032909;28;20746;-84
2022/01/21 07:17:45;;;;;;;10.87;5.37;;;-2.60;99.90;;;;;;5021687;28;20192;-83
2022/01/21 07:20:11;;;;;;;6.73;3.90;;;-2.80;99.90;;;;;;5019717;28;20267;-83
2022/01/21 07:22:38;;;;;;;8.07;3.37;;;;;;;;;;5018074;28;20205;-82
2022/01/21 07:25:05;;;;;;;7.90;4.53;;;-2.70;99.90;;;;;;5033498;28;20183;-83
2022/01/21 07:27:31;;;;;;;8.63;3.90;;;;;;;;;;5012825;28;20195;-83
2022/01/21 07:29:57;;;;;;;6.27;3.60;;;;;;;;;;5011581;28;20217;-84
2022/01/21 07:32:23;;;;;;;10.43;3.57;;;-2.60;99.90;;;;;;5031242;28;20192;-84
2022/01/21 07:34:48;;;;;;;6.90;2.97;;;-0.50;99.90;;;;;;5031947;28;20280;-86
2022/01/21 07:37:15;;;;;;;19.67;3.47;;;;;;;;;;5031052;28;20251;-84
2022/01/21 07:39:41;;;;;;;15.93;4.37;;;-2.50;99.90;;;;;;5030567;28;20770;-83
2022/01/21 07:42:06;;;;;;;4.67;2.73;;;-2.30;99.90;;;;;;5031086;28;20271;-83
2022/01/21 07:44:32;;;;;;;9.23;4.60;;;;;;;;;;5031983;28;20199;-84
2022/01/21 07:46:59;;;;;;;4.83;3.00;;;;;;;;;;5032627;28;20666;-83
2022/01/21 07:49:25;;;;;;;12.93;4.47;;;-2.50;99.90;;;;;;5031459;28;20645;-84
2022/01/21 07:51:51;;;;;;;8.07;4.47;;;-1.00;99.90;;;;;;5015642;28;20637;-84
2022/01/21 07:54:16;;;;;;;7.50;4.13;;;-2.30;99.90;;;;;;5041075;28;20192;-83
2022/01/21 07:56:42;;;;;;;9.43;3.33;;;-2.30;99.90;;;;;;5028077;28;20238;-84
2022/01/21 07:59:11;;;;;;;7.53;3.70;;;-2.40;99.90;;;;;;5049413;28;20191;-84
2022/01/21 08:01:38;;;;;;;7.30;3.93;;;;;;;;;;5037681;28;20251;-83
2022/01/21 08:04:04;;;;;;;7.80;3.87;;;-2.00;99.90;;;;;;5032798;28;20224;-84
2022/01/21 08:06:30;;;;;;;5.97;3.30;;;-1.40;99.90;;;;;;5039318;28;20279;-83
2022/01/21 08:08:57;;;;;;;8.67;3.33;;;0.50;99.90;;;;;;5032033;28;20244;-83
2022/01/21 08:11:23;;;;;;;10.30;4.60;;;;;;;;;;5049817;28;20464;-84
2022/01/21 08:13:49;;;;;;;11.13;4.50;;;;;;;;;;5034619;28;20184;-84
2022/01/21 08:16:15;;;;;;;10.03;4.27;;;;;;;;;;5051779;28;20180;-83
2022/01/21 08:18:41;;;;;;;4.60;2.83;;;;;;;;;;5053063;28;20184;-85
2022/01/21 08:21:07;;;;;;;6.97;3.77;;;;;;;;;;5035086;28;20185;-84
2022/01/21 08:23:33;;;;;;;10.73;4.20;;;-1.90;99.90;;;;;;5052690;28;20272;-84
2022/01/21 08:25:59;;;;;;;14.93;4.50;;;-1.90;99.90;;;;;;5035503;28;20589;-83
2022/01/21 08:28:26;;;;;;;11.50;4.03;;;;;;;;;;5035271;28;20303;-83
2022/01/21 08:30:52;;;;;;;7.83;3.40;;;;;;;;;;5052784;28;20540;-84
2022/01/21 08:33:18;;;;;;;13.70;4.23;;;;;;;;;;5053154;28;20178;-84
2022/01/21 08:35:44;;;;;;;6.40;3.77;;;-1.80;99.90;;;;;;5051953;28;20192;-84
2022/01/21 08:38:09;;;;;;;9.73;3.83;;;-1.70;99.90;;;;;;5051485;28;20253;-83
2022/01/21 08:40:35;;;;;;;10.00;4.43;;;;;;;;;;5052177;28;20207;-83
2022/01/21 08:43:01;;;;;;;4.63;3.23;;;-1.70;99.90;;;;;;5051947;28;20204;-84
2022/01/21 08:45:29;;;;;;;10.83;3.63;;;;;;;;;;5051697;28;20183;-83
2022/01/21 08:47:55;;;;;;;6.73;4.00;;;;;;;;;;5051873;28;20217;-83
2022/01/21 08:50:22;;;;;;;9.43;2.90;;;-1.70;99.90;;;;;;5052274;28;20643;-84
2022/01/21 08:52:49;;;;;;;10.77;4.70;;;0.50;99.90;;;;;;5053224;28;20229;-84
2022/01/21 08:55:17;;;;;;;7.43;3.83;;;0.90;99.90;;;;;;5051894;28;20185;-84
2022/01/21 08:57:45;;;;;;;9.70;3.37;;;0.70;99.90;;;;;;5052675;28;20186;-83
2022/01/21 09:00:12;;;;;;;5.10;3.17;;;0.20;99.90;;;;;;5053029;28;20276;-84
2022/01/21 09:02:38;;;;;;;5.40;2.70;;;;;;;;;;5055391;28;20688;-83
2022/01/21 09:05:05;;;;;;;3.57;3.17;;;-1.40;99.90;;;;;;5055500;28;20210;-84
2022/01/21 09:07:31;;;;;;;8.10;4.57;;;;;;;;;;5039423;28;20262;-84
2022/01/21 09:09:57;;;;;;;9.37;4.47;;;-1.30;99.90;;;;;;5039049;28;20230;-84
2022/01/21 09:12:22;;;;;;;11.77;4.07;;;0.10;99.90;;;;;;5038821;28;20182;-84
2022/01/21 09:14:49;;;;;;;5.63;3.43;;;-1.30;99.90;;;;;;5055304;28;20190;-84
2022/01/21 09:17:15;;;;;;;10.47;3.57;;;-0.70;99.90;;;;;;5051142;28;20191;-83
2022/01/21 09:19:41;;;;;;;7.43;3.40;;;1.00;99.90;;;;;;5056274;28;20278;-83
2022/01/21 09:22:07;;;;;;;8.37;3.57;;;-1.00;99.90;;;;;;5038909;28;20743;-84
2022/01/21 09:24:33;;;;;;;11.57;4.50;;;;;;;;;;5055618;28;20184;-84
2022/01/21 09:27:00;;;;;;;9.03;4.20;;;-1.00;99.90;;;;;;5038756;28;20189;-85
2022/01/21 09:29:26;;;;;;;8.60;3.77;;;;;;;;;;5033035;28;20208;-84
2022/01/21 09:31:52;;;;;;;10.93;4.23;;;;;;;;;;5035210;28;20188;-84
2022/01/21 09:34:18;;;;;;;9.10;4.57;;;;;;;;;;5035289;28;20274;-84
2022/01/21 09:36:44;;;;;;;14.37;4.10;;;-1.00;99.90;;;;;;5037131;28;20180;-83
2022/01/21 09:39:10;;;;;;;5.00;3.13;;;-0.40;99.90;;;;;;5044389;28;20185;-83
2022/01/21 09:41:36;;;;;;;7.27;2.77;;;-1.00;99.90;;;;;;5049710;28;20174;-84
2022/01/21 09:44:05;;;;;;;7.03;4.37;;;0.80;99.90;;;;;;5053385;28;20194;-84
2022/01/21 09:46:36;;;;;;;5.20;2.57;;;-0.80;99.90;;;;;;5053959;28;20197;-84
2022/01/21 09:49:08;;;;;;;8.27;3.70;;;0.10;99.90;;;;;;5042210;28;20235;-87
2022/01/21 09:51:36;;;;;;;6.30;3.77;;;-0.70;99.90;;;;;;5060517;28;20159;-84
2022/01/21 09:54:07;;;;;;;7.87;4.27;;;-0.50;99.90;;;;;;5065018;28;20180;-86
2022/01/21 09:56:34;;;;;;;8.90;3.43;;;;;;;;;;5043370;28;20239;-85
2022/01/21 09:59:01;;;;;;;9.40;3.50;;;;;;;;;;5058771;28;20171;-87
2022/01/21 10:01:27;;;;;;;4.27;2.20;;;-0.40;99.90;;;;;;5053374;28;20240;-84
2022/01/21 10:03:53;;;;;;;5.90;3.30;;;;;;;;;;5063351;28;20334;-86
2022/01/21 10:06:24;;;;;;;4.60;2.57;;;-0.30;99.90;;;;;;5067241;28;20200;-86
2022/01/21 10:08:54;;;;;;;7.03;2.40;;;2.30;99.90;;;;;;5067729;28;20210;-84
2022/01/21 10:11:20;;;;;;;10.07;3.00;;;1.60;99.90;;;;;;5068111;28;20199;-82
2022/01/21 10:13:48;;;;;;;7.77;2.70;;;-0.20;99.90;;;;;;5063583;28;20258;-84
2022/01/21 10:16:14;;;;;;;6.87;3.20;;;;;;;;;;5054385;28;20197;-84
2022/01/21 10:19:13;;;;;;;5.23;2.43;;;-0.10;99.90;;;;;;5046204;28;20193;-83
2022/01/21 10:21:43;;;;;;;4.40;2.80;;;0.20;99.90;;;;;;5027029;28;20188;-84
2022/01/21 10:24:13;;;;;;;7.90;2.73;;;0.10;99.90;;;;;;5038499;28;20170;-83
2022/01/21 10:26:47;;;;;;;3.13;2.03;;;2.70;99.90;;;;;;5037858;28;20185;-82
2022/01/21 10:29:13;;;;;;;3.00;2.00;;;;;;;;;;5034323;28;20235;-85
2022/01/21 10:31:57;;;;;;;4.40;2.50;;;0.20;99.90;;;;;;5036033;28;20173;-83
2022/01/21 10:34:38;;;;;;;8.00;2.40;;;0.20;99.90;;;;;;5035646;28;20179;-83
2022/01/21 10:37:24;;;;;;;5.90;2.63;;;0.30;99.90;;;;;;5034906;28;20185;-84
2022/01/21 10:40:00;;;;;;;11.40;2.90;;;2.50;99.90;;;;;;5036413;28;20631;-83
2022/01/21 10:42:27;;;;;;;6.27;2.30;;;0.30;99.90;;;;;;5035378;28;20226;-83
2022/01/21 10:44:54;;;;;;;5.83;2.60;;;;;;;;;;5047078;28;20249;-83
2022/01/21 10:47:35;;;;;;;5.13;2.13;;;0.30;99.90;;;;;;5042405;28;20178;-82
2022/01/21 10:50:07;;;;;;;5.33;2.60;;;0.40;99.90;;;;;;5035265;28;20186;-82
2022/01/21 10:52:58;;;;;;;6.33;2.67;;;0.50;99.90;;;;;;5035150;28;20208;-82
2022/01/21 10:55:39;;;;;;;6.57;3.00;;;1.80;99.90;;;;;;5030750;28;20591;-82
2022/01/21 10:58:13;;;;;;;4.37;2.47;;;0.70;99.90;;;;;;5034776;28;20181;-81
2022/01/21 11:00:58;;;;;;;7.23;2.40;;;1.10;99.90;;;;;;5034961;28;20179;-83
2022/01/21 11:03:25;;;;;;;6.40;3.43;;;;;;;;;;5034839;28;20231;-82
2022/01/21 11:05:55;;;;;;;6.50;2.97;;;;;;;;;;5034985;28;20184;-82
2022/01/21 11:08:26;;;;;;;6.10;2.27;;;0.50;99.90;;;;;;5034222;28;20700;-85
2022/01/21 11:10:52;;;;;;;8.23;2.37;;;0.50;99.90;;;;;;5033254;28;20620;-84
2022/01/21 11:13:20;;;;;;;9.00;3.07;;;0.50;99.90;;;;;;5039476;28;20181;-83
2022/01/21 11:15:55;;;;;;;4.17;2.47;;;2.70;99.90;;;;;;5041606;28;20215;-84
2022/01/21 11:18:22;;;;;;;6.70;2.67;;;0.60;99.90;;;;;;5054336;28;20171;-84
2022/01/21 11:20:53;;;;;;;7.70;2.50;;;0.60;99.90;;;;;;5052543;28;20172;-83
2022/01/21 11:23:21;;;;;;;3.10;2.20;;;0.60;99.90;;;;;;5053556;28;20664;-83
2022/01/21 11:25:47;;;;;;;6.73;2.20;;;;;;;;;;5049633;28;20191;-84
2022/01/21 11:28:24;;;;;;;6.63;2.47;;;0.60;99.90;;;;;;5032796;28;20212;-82
2022/01/21 11:30:51;;;;;;;3.20;1.83;;;0.50;99.90;;;;;;5034244;28;20622;-82
2022/01/21 11:33:18;;;;;;;7.27;2.70;;;0.60;99.90;;;;;;5032487;28;20238;-82
2022/01/21 11:35:46;;;;;;;7.80;3.00;;;3.30;99.90;;;;;;5033970;28;20191;-81
2022/01/21 11:38:12;;;;;;;6.43;2.23;;;2.40;99.90;;;;;;5032357;28;20188;-82
2022/01/21 11:40:40;;;;;;;6.20;2.37;;;0.60;99.90;;;;;;5032382;28;20643;-82
2022/01/21 11:43:07;;;;;;;5.90;2.37;;;2.10;99.90;;;;;;5033867;28;20175;-83
2022/01/21 11:50:49;;;;;;;5.50;2.40;;;0.80;99.90;;;;;;5033494;28;20183;-85
2022/01/21 11:53:35;;;;;;;6.60;3.10;;;1.10;99.90;;;;;;5032970;28;20677;-84
2022/01/21 11:56:06;;;;;;;4.23;2.03;;;;;;;;;;5018437;28;20193;-85
2022/01/21 11:58:32;;;;;;;7.97;2.67;;;1.40;99.90;;;;;;5032083;28;20195;-85
2022/01/21 12:00:58;;;;;;;5.23;2.40;;;2.20;99.90;;;;;;5015877;28;20184;-83
2022/01/21 12:03:43;;;;;;;7.13;2.07;;;2.80;99.90;;;;;;5015130;28;20271;-85
2022/01/21 12:06:35;;;;;;;4.80;2.47;;;2.70;99.90;;;;;;5018464;28;20246;-82
2022/01/21 12:09:04;;;;;;;2.00;1.80;;;3.00;94.70;;;;;;5033319;28;20202;-85
2022/01/21 12:11:37;;;;;;;7.67;2.70;;;3.30;95.00;;;;;;5031841;28;20181;-85
2022/01/21 12:14:35;;;;;;;5.83;2.73;;;4.50;97.40;;;;;;5032266;28;20660;-84
2022/01/21 12:17:14;;;;;;;3.60;2.20;;;2.80;95.30;;;;;;5029125;28;20191;-86
2022/01/21 12:19:40;;;;;;;8.70;3.70;;;2.20;99.90;;;;;;5031641;28;20513;-84
2022/01/21 12:22:17;;;;;;;6.83;2.60;;;2.20;99.90;;;;;;5032014;28;20175;-85
2022/01/21 12:24:54;;;;;;;5.00;2.30;;;2.30;98.50;;;;;;5033400;28;20167;-84
2022/01/21 12:27:21;;;;;;;6.30;2.77;;;1.90;99.90;;;;;;5033208;28;20158;-83
2022/01/21 12:29:48;;;;;;;3.93;2.40;;;2.40;99.90;;;;;;5031757;28;20208;-84
2022/01/21 12:32:21;;;;;;;6.53;2.77;;;3.60;99.90;;;;;;5017713;28;20207;-84
2022/01/21 12:34:59;;;;;;;6.87;2.37;;;3.40;99.90;;;;;;5039640;28;20171;-85
2022/01/21 12:37:37;;;;;;;4.37;2.40;;;3.10;99.90;;;;;;5042633;28;20176;-85
2022/01/21 12:40:04;;;;;;;7.00;3.33;;;0.80;99.90;;;;;;5032603;28;20653;-88
2022/01/21 12:42:35;;;;;;;8.60;2.47;;;0.30;99.90;;;;;;5035189;28;20206;-86
2022/01/21 12:45:05;;;;;;;4.63;2.43;;;1.60;99.90;;;;;;5032121;28;20216;-85
2022/01/21 12:47:46;;;;;;;9.53;2.57;;;0.10;99.90;;;;;;5031565;28;20188;-83
2022/01/21 12:50:16;;;;;;;8.27;2.60;;;;;;;;;;5015772;28;20341;-85
2022/01/21 12:52:49;;;;;;;7.50;2.40;;;0.00;99.90;;;;;;5032446;28;20179;-85
2022/01/21 12:58:12;;;;;;;8.60;2.87;;;-0.10;99.90;;;;;;5032686;28;20553;-85
2022/01/21 13:00:39;;;;;;;9.03;3.23;;;0.90;99.90;;;;;;5032489;28;20233;-83
2022/01/21 13:03:14;;;;;;;5.37;3.10;;;-0.20;99.90;;;;;;5031024;28;20230;-83
2022/01/21 13:05:44;;;;;;;5.63;2.50;;;-0.30;99.90;;;;;;5031334;28;20176;-84
2022/01/21 13:08:34;;;;;;;8.00;3.40;;;2.20;99.90;;;;;;5032544;28;20205;-85
2022/01/21 13:11:23;;;;;;;5.47;3.07;;;-0.20;99.90;;;;;;5031119;28;20530;-85
2022/01/21 13:16:58;;;;;;;6.93;2.77;;;-0.30;99.90;;;;;;5052271;28;20187;-84
2022/01/21 13:19:24;;;;;;;6.27;3.10;;;0.40;99.90;;;;;;5047922;28;20193;-86
2022/01/21 13:21:50;;;;;;;9.93;4.37;;;-0.30;99.90;;;;;;5030549;28;20179;-84
2022/01/21 13:24:38;;;;;;;8.57;3.37;;;-0.30;99.90;;;;;;5022446;28;20176;-84
2022/01/21 13:27:02;;;;;;;4.00;2.80;;;;;;;;;;5031610;28;20189;-85
2022/01/21 13:29:30;;;;;;;3.50;2.10;;;-0.20;99.90;;;;;;5031143;28;20695;-85
2022/01/21 13:31:58;;;;;;;9.10;3.80;;;0.50;99.90;;;;;;5031758;28;20180;-83
2022/01/21 13:34:40;;;;;;;6.77;3.90;;;-0.20;99.90;;;;;;5033155;28;20292;-83
2022/01/21 13:37:10;;;;;;;4.37;2.67;;;-0.20;99.90;;;;;;5031400;28;20180;-85
2022/01/21 13:39:41;;;;;;;6.87;2.97;;;0.80;99.90;;;;;;5014787;28;20190;-83
2022/01/21 13:42:22;;;;;;;7.30;3.27;;;0.10;99.90;;;;;;5031619;28;20182;-83
2022/01/21 13:44:53;;;;;;;5.60;3.03;;;2.10;99.90;;;;;;5031409;28;20187;-82
2022/01/21 13:47:31;;;;;;;7.70;3.63;;;0.50;99.90;;;;;;5031777;28;20169;-83
2022/01/21 13:49:59;;;;;;;10.53;3.13;;;-0.20;99.90;;;;;;5035530;28;20241;-85
2022/01/21 13:52:43;;;;;;;9.07;3.63;;;1.80;99.90;;;;;;5036342;28;20579;-83
2022/01/21 13:55:11;;;;;;;14.90;4.03;;;0.60;99.90;;;;;;5036350;28;20191;-83
2022/01/21 13:57:44;;;;;;;8.20;2.97;;;-0.20;99.90;;;;;;5034919;28;20190;-84
2022/01/21 14:00:11;;;;;;;6.80;3.43;;;-0.20;99.90;;;;;;5035275;28;20180;-83
2022/01/21 14:02:37;;;;;;;7.47;2.60;;;-0.20;99.90;;;;;;5034484;28;20241;-83
2022/01/21 14:05:03;;;;;;;4.60;2.47;;;1.00;99.90;;;;;;5035548;28;20184;-83
2022/01/21 14:07:32;;;;;;;13.53;3.40;;;-0.20;99.90;;;;;;5035811;28;20263;-87
2022/01/21 14:10:01;;;;;;;6.20;3.73;;;2.00;99.90;;;;;;5036234;28;20299;-82
2022/01/21 14:12:30;;;;;;;5.83;3.10;;;-0.30;99.90;;;;;;5035998;28;20192;-83
2022/01/21 14:14:56;;;;;;;8.27;4.10;;;0.20;99.90;;;;;;5034693;28;20184;-83
2022/01/21 14:17:25;;;;;;;8.87;3.20;;;;;;;;;;5034594;28;20234;-83
2022/01/21 14:20:04;;;;;;;11.80;3.27;;;-0.30;99.90;;;;;;5034041;28;20182;-83